Time;durP1;ratioP1;P1;durP2;ratioP2;P2;SDS_P1;SDS_P2;PMS_P1;PMS_P2;Temp;Humidity;BMP_temperature;BMP_pressure;BME280_temperature;BME280_humidity;BME280_pressure;Samples;Min_cycle;Max_cycle;Signal;HPM_P1;HPM_P2
2023/10/27 00:01:58;;;;;;;;;;;9.20;99.90;;;;;;4861758;29;20363;-83
2023/10/27 00:04:24;;;;;;;;;;;9.20;99.90;;;;;;4861681;29;19935;-85
2023/10/27 00:06:49;;;;;;;;;;;9.20;99.90;;;;;;4846273;29;19932;-84
2023/10/27 00:09:15;;;;;;;;;;;9.20;99.90;;;;;;4861066;29;19928;-84
2023/10/27 00:11:40;;;;;;;;;;;9.20;99.90;;;;;;4861424;29;19935;-86
2023/10/27 00:14:06;;;;;;;;;;;9.30;99.90;;;;;;4861675;29;20026;-84
2023/10/27 00:16:32;;;;;;;;;;;9.30;99.90;;;;;;4862233;29;19928;-85
2023/10/27 00:18:57;;;;;;;;;;;9.30;99.90;;;;;;4846095;29;19976;-84
2023/10/27 00:21:23;;;;;;;;;;;9.30;99.90;;;;;;4845881;29;19928;-85
2023/10/27 00:23:49;;;;;;;;;;;9.30;99.90;;;;;;4862815;29;20023;-84
2023/10/27 00:26:14;;;;;;;;;;;9.40;99.90;;;;;;4862153;29;19932;-84
2023/10/27 00:28:40;;;;;;;;;;;9.30;99.90;;;;;;4845769;29;19956;-84
2023/10/27 00:31:05;;;;;;;;;;;9.30;99.90;;;;;;4861059;29;20019;-83
2023/10/27 00:33:31;;;;;;;;;;;9.40;99.90;;;;;;4860936;29;20351;-84
2023/10/27 00:35:57;;;;;;;;;;;9.40;99.90;;;;;;4860450;29;19932;-84
2023/10/27 00:38:23;;;;;;;;;;;9.30;99.90;;;;;;4845661;29;19929;-85
2023/10/27 00:40:48;;;;;;;;;;;9.40;99.90;;;;;;4860999;29;19935;-84
2023/10/27 00:43:15;;;;;;;;;;;9.40;99.90;;;;;;4861030;29;19928;-84
2023/10/27 00:45:41;;;;;;;;;;;9.40;99.90;;;;;;4860816;29;19928;-83
2023/10/27 00:48:07;;;;;;;;;;;9.40;99.90;;;;;;4861008;29;19983;-83
2023/10/27 00:50:33;;;;;;;;;;;9.40;99.90;;;;;;4860864;29;19928;-85
2023/10/27 00:52:59;;;;;;;;;;;9.40;99.90;;;;;;4861687;29;19943;-84
2023/10/27 00:55:25;;;;;;;;;;;9.40;99.90;;;;;;4845817;29;20014;-84
2023/10/27 00:57:52;;;;;;;;;;;9.40;99.90;;;;;;4861410;29;19982;-85
2023/10/27 01:00:17;;;;;;;;;;;9.40;99.90;;;;;;4862930;29;19928;-84
2023/10/27 01:02:43;;;;;;;;;;;9.40;99.90;;;;;;4862803;29;20019;-84
2023/10/27 01:05:08;;;;;;;;;;;9.40;99.90;;;;;;4861209;29;20334;-89
2023/10/27 01:07:35;;;;;;;;;;;9.40;99.90;;;;;;4860901;29;19932;-85
2023/10/27 01:10:01;;;;;;;;;;;9.40;99.90;;;;;;4846266;29;19928;-84
2023/10/27 01:12:27;;;;;;;;;;;9.40;99.90;;;;;;4861405;29;20150;-84
2023/10/27 01:14:52;;;;;;;;;;;9.40;99.90;;;;;;4861185;29;19935;-84
2023/10/27 01:17:18;;;;;;;;;;;9.40;99.90;;;;;;4861176;29;19928;-84
2023/10/27 01:19:44;;;;;;;;;;;9.40;99.90;;;;;;4860586;29;19976;-84
2023/10/27 01:22:12;;;;;;;;;;;9.40;99.90;;;;;;4859930;29;19928;-84
2023/10/27 01:24:37;;;;;;;;;;;9.40;99.90;;;;;;4844484;29;20016;-89
2023/10/27 01:27:03;;;;;;;;;;;9.40;99.90;;;;;;4845071;29;20019;-84
2023/10/27 01:29:29;;;;;;;;;;;9.50;99.90;;;;;;4860019;29;19950;-85
2023/10/27 01:31:55;;;;;;;;;;;9.50;99.90;;;;;;4860108;29;19932;-84
2023/10/27 01:34:21;;;;;;;;;;;9.50;99.90;;;;;;4861202;29;19936;-86
2023/10/27 01:36:46;;;;;;;;;;;9.50;99.90;;;;;;4861356;29;19929;-85
2023/10/27 01:39:13;;;;;;;;;;;9.50;99.90;;;;;;4860295;29;19971;-84
2023/10/27 01:41:38;;;;;;;;;;;9.50;99.90;;;;;;4861844;29;19967;-84
2023/10/27 01:44:04;;;;;;;;;;;9.50;99.90;;;;;;4860633;29;20415;-84
2023/10/27 01:46:29;;;;;;;;;;;9.50;99.90;;;;;;4860388;29;19928;-89
2023/10/27 01:48:55;;;;;;;;;;;9.50;99.90;;;;;;4860308;29;20005;-83
2023/10/27 01:51:21;;;;;;;;;;;9.50;99.90;;;;;;4861879;29;20337;-83
2023/10/27 01:53:46;;;;;;;;;;;9.50;99.90;;;;;;4860454;29;19936;-85
2023/10/27 01:56:12;;;;;;;;;;;9.50;99.90;;;;;;4844877;29;19928;-84
2023/10/27 01:58:43;;;;;;;;;;;9.50;99.90;;;;;;4844510;29;19936;-85
2023/10/27 02:01:09;;;;;;;;;;;9.50;99.90;;;;;;4860449;29;19981;-84
2023/10/27 02:03:35;;;;;;;;;;;9.50;99.90;;;;;;4860378;29;20332;-83
2023/10/27 02:06:00;;;;;;;;;;;9.40;99.90;;;;;;4862731;29;20019;-85
2023/10/27 02:08:26;;;;;;;;;;;9.50;99.90;;;;;;4862215;29;20258;-84
2023/10/27 02:10:52;;;;;;;;;;;9.50;99.90;;;;;;4861168;29;19928;-84
2023/10/27 02:13:17;;;;;;;;;;;9.50;99.90;;;;;;4861940;29;19934;-83
2023/10/27 02:15:43;;;;;;;;;;;9.50;99.90;;;;;;4860441;29;19935;-85
2023/10/27 02:18:08;;;;;;;;;;;9.40;99.90;;;;;;4860953;29;20436;-85
2023/10/27 02:20:35;;;;;;;;;;;9.40;99.90;;;;;;4860649;29;20035;-84
2023/10/27 02:23:01;;;;;;;;;;;9.40;99.90;;;;;;4844863;29;19950;-84
2023/10/27 02:25:26;;;;;;;;;;;9.40;99.90;;;;;;4859918;29;19928;-85
2023/10/27 02:27:52;;;;;;;;;;;9.40;99.90;;;;;;4859742;29;19928;-87
2023/10/27 02:30:17;;;;;;;;;;;9.40;99.90;;;;;;4859863;29;19992;-86
2023/10/27 02:32:43;;;;;;;;;;;9.40;99.90;;;;;;4863340;29;19948;-84
2023/10/27 02:35:09;;;;;;;;;;;9.40;99.90;;;;;;4862655;29;19975;-85
2023/10/27 02:37:34;;;;;;;;;;;9.50;99.90;;;;;;4863677;29;19932;-85
2023/10/27 02:40:00;;;;;;;;;;;9.50;99.90;;;;;;4863674;29;20022;-84
2023/10/27 02:42:25;;;;;;;;;;;9.40;99.90;;;;;;4864321;29;19928;-84
2023/10/27 02:44:51;;;;;;;;;;;9.40;99.90;;;;;;4863638;29;19984;-84
2023/10/27 02:47:16;;;;;;;;;;;9.40;99.90;;;;;;4863001;29;19935;-83
2023/10/27 02:49:42;;;;;;;;;;;9.40;99.90;;;;;;4863953;29;19928;-84
2023/10/27 02:52:08;;;;;;;;;;;9.40;99.90;;;;;;4863923;29;19928;-84
2023/10/27 02:54:34;;;;;;;;;;;9.40;99.90;;;;;;4863522;29;20367;-84
2023/10/27 02:56:59;;;;;;;;;;;9.40;99.90;;;;;;4862931;29;19928;-84
2023/10/27 02:59:25;;;;;;;;;;;9.40;99.90;;;;;;4862522;29;19954;-84
2023/10/27 03:01:52;;;;;;;;;;;9.40;99.90;;;;;;4863846;29;19928;-85
2023/10/27 03:04:19;;;;;;;;;;;9.40;99.90;;;;;;4863505;29;20023;-86
2023/10/27 03:06:44;;;;;;;;;;;9.40;99.90;;;;;;4862747;29;20060;-83
2023/10/27 03:09:10;;;;;;;;;;;9.40;99.90;;;;;;4862786;29;19928;-84
2023/10/27 03:11:35;;;;;;;;;;;9.40;99.90;;;;;;4864041;29;19928;-84
2023/10/27 03:14:01;;;;;;;;;;;9.40;99.90;;;;;;4862556;29;20232;-85
2023/10/27 03:16:27;;;;;;;;;;;9.40;99.90;;;;;;4863312;29;20023;-85
2023/10/27 03:18:53;;;;;;;;;;;9.40;99.90;;;;;;4862090;29;19928;-85
2023/10/27 03:21:19;;;;;;;;;;;9.40;99.90;;;;;;4863190;29;19928;-83
2023/10/27 03:23:44;;;;;;;;;;;9.40;99.90;;;;;;4846543;29;20383;-85
2023/10/27 03:26:10;;;;;;;;;;;9.40;99.90;;;;;;4832391;29;20022;-84
2023/10/27 03:28:36;;;;;;;;;;;9.40;99.90;;;;;;4863577;29;20125;-86
2023/10/27 03:31:01;;;;;;;;;;;9.40;99.90;;;;;;4848958;29;19928;-85
2023/10/27 03:33:27;;;;;;;;;;;9.40;99.90;;;;;;4847958;29;20370;-85
2023/10/27 03:35:52;;;;;;;;;;;9.40;99.90;;;;;;4846749;29;19928;-84
2023/10/27 03:38:18;;;;;;;;;;;9.40;99.90;;;;;;4862217;29;19932;-84
2023/10/27 03:40:44;;;;;;;;;;;9.40;99.90;;;;;;4862873;29;20254;-84
2023/10/27 03:43:10;;;;;;;;;;;9.40;99.90;;;;;;4861377;29;19928;-84
2023/10/27 03:45:36;;;;;;;;;;;9.40;99.90;;;;;;4861973;29;19935;-85
2023/10/27 03:48:02;;;;;;;;;;;9.40;99.90;;;;;;4861935;29;19928;-84
2023/10/27 03:50:27;;;;;;;;;;;9.40;99.90;;;;;;4861861;29;19928;-84
2023/10/27 03:52:53;;;;;;;;;;;9.40;99.90;;;;;;4861853;29;19935;-84
2023/10/27 03:55:18;;;;;;;;;;;9.40;99.90;;;;;;4861793;29;20122;-85
2023/10/27 03:57:44;;;;;;;;;;;9.40;99.90;;;;;;4862032;29;19932;-84
2023/10/27 04:00:10;;;;;;;;;;;9.40;99.90;;;;;;4846307;29;20334;-83
2023/10/27 04:02:36;;;;;;;;;;;9.40;99.90;;;;;;4861603;29;19928;-84
2023/10/27 04:05:03;;;;;;;;;;;9.40;99.90;;;;;;4846348;29;19979;-86
2023/10/27 04:07:29;;;;;;;;;;;9.30;99.90;;;;;;4861424;29;19995;-85
2023/10/27 04:09:55;;;;;;;;;;;9.40;99.90;;;;;;4861732;29;19993;-83
2023/10/27 04:12:21;;;;;;;;;;;9.40;99.90;;;;;;4861653;29;20396;-84
2023/10/27 04:14:48;;;;;;;;;;;9.40;99.90;;;;;;4845964;29;19928;-84
2023/10/27 04:17:13;;;;;;;;;;;9.40;99.90;;;;;;4845817;29;19929;-85
2023/10/27 04:19:39;;;;;;;;;;;9.30;99.90;;;;;;4862161;29;19936;-84
2023/10/27 04:22:05;;;;;;;;;;;9.40;99.90;;;;;;4861251;29;19932;-83
2023/10/27 04:24:31;;;;;;;;;;;9.40;99.90;;;;;;4846385;29;19928;-84
2023/10/27 04:26:56;;;;;;;;;;;9.40;99.90;;;;;;4861214;29;19928;-85
2023/10/27 04:29:22;;;;;;;;;;;9.40;99.90;;;;;;4861156;29;19993;-84
2023/10/27 04:31:47;;;;;;;;;;;9.40;99.90;;;;;;4861171;29;19934;-85
2023/10/27 04:34:13;;;;;;;;;;;9.40;99.90;;;;;;4861882;29;19935;-85
2023/10/27 04:36:38;;;;;;;;;;;9.40;99.90;;;;;;4860433;29;20344;-85
2023/10/27 04:39:04;;;;;;;;;;;9.40;99.90;;;;;;4860772;29;19932;-84
2023/10/27 04:41:30;;;;;;;;;;;9.40;99.90;;;;;;4861715;29;19928;-84
2023/10/27 04:43:56;;;;;;;;;;;9.40;99.90;;;;;;4846287;29;19975;-84
2023/10/27 04:46:22;;;;;;;;;;;9.40;99.90;;;;;;4860934;29;20018;-84
2023/10/27 04:48:47;;;;;;;;;;;9.30;99.90;;;;;;4845734;29;19947;-87
2023/10/27 04:51:13;;;;;;;;;;;9.30;99.90;;;;;;4861773;29;20414;-85
2023/10/27 04:53:39;;;;;;;;;;;9.30;99.90;;;;;;4861069;29;19950;-84
2023/10/27 04:56:04;;;;;;;;;;;9.30;99.90;;;;;;4860273;29;20043;-84
2023/10/27 04:58:30;;;;;;;;;;;9.30;99.90;;;;;;4861004;29;20035;-83
2023/10/27 05:00:55;;;;;;;;;;;9.30;99.90;;;;;;4860615;29;20284;-85
2023/10/27 05:03:21;;;;;;;;;;;9.30;99.90;;;;;;4845060;29;19928;-85
2023/10/27 05:05:47;;;;;;;;;;;9.20;99.90;;;;;;4845077;29;19975;-84
2023/10/27 05:08:12;;;;;;;;;;;9.30;99.90;;;;;;4861232;29;19928;-86
2023/10/27 05:10:40;;;;;;;;;;;9.30;99.90;;;;;;4861709;29;19928;-84
2023/10/27 05:13:06;;;;;;;;;;;9.30;99.90;;;;;;4861439;29;19928;-84
2023/10/27 05:15:32;;;;;;;;;;;9.30;99.90;;;;;;4861023;29;19932;-84
2023/10/27 05:18:04;;;;;;;;;;;9.30;99.90;;;;;;4861525;29;20381;-84
2023/10/27 05:20:30;;;;;;;;;;;9.30;99.90;;;;;;4861837;29;19974;-86
2023/10/27 05:22:56;;;;;;;;;;;9.30;99.90;;;;;;4860298;29;19928;-84
2023/10/27 05:25:22;;;;;;;;;;;9.30;99.90;;;;;;4876227;29;19935;-84
2023/10/27 05:27:48;;;;;;;;;;;9.30;99.90;;;;;;4861294;29;20023;-84
2023/10/27 05:30:13;;;;;;;;;;;9.30;99.90;;;;;;4845112;29;20019;-84
2023/10/27 05:32:39;;;;;;;;;;;9.30;99.90;;;;;;4860481;29;19935;-85
2023/10/27 05:35:05;;;;;;;;;;;9.30;99.90;;;;;;4860418;29;19956;-85
2023/10/27 05:37:30;;;;;;;;;;;9.30;99.90;;;;;;4860755;29;20321;-87
2023/10/27 05:39:56;;;;;;;;;;;9.30;99.90;;;;;;4845099;29;19928;-83
2023/10/27 05:42:21;;;;;;;;;;;9.30;99.90;;;;;;4861918;29;19928;-84
2023/10/27 05:44:47;;;;;;;;;;;9.30;99.90;;;;;;4860362;29;20381;-83
2023/10/27 05:47:13;;;;;;;;;;;9.30;99.90;;;;;;4860117;29;19928;-85
2023/10/27 05:49:38;;;;;;;;;;;9.30;99.90;;;;;;4845023;29;19934;-84
2023/10/27 05:52:04;;;;;;;;;;;9.30;99.90;;;;;;4860247;29;19935;-84
2023/10/27 05:54:30;;;;;;;;;;;9.30;99.90;;;;;;4860152;29;19953;-85
2023/10/27 05:56:55;;;;;;;;;;;9.30;99.90;;;;;;4846444;29;19938;-84
2023/10/27 05:59:21;;;;;;;;;;;9.30;99.90;;;;;;4862223;29;19979;-83
2023/10/27 06:01:48;;;;;;;;;;;9.30;99.90;;;;;;4861060;29;19928;-85
2023/10/27 06:04:14;;;;;;;;;;;9.30;99.90;;;;;;4860389;29;20319;-84
2023/10/27 06:06:40;;;;;;;;;;;9.30;99.90;;;;;;4846900;29;19928;-84
2023/10/27 06:09:05;;;;;;;;;;;9.30;99.90;;;;;;4863590;29;19979;-84
2023/10/27 06:11:31;;;;;;;;;;;9.20;99.90;;;;;;4865384;29;19936;-83
2023/10/27 06:13:57;;;;;;;;;;;9.20;99.90;;;;;;4864855;29;20234;-86
2023/10/27 06:16:23;;;;;;;;;;;9.20;99.90;;;;;;4863262;29;20015;-86
2023/10/27 06:18:51;;;;;;;;;;;9.30;99.90;;;;;;4863306;29;19979;-84
2023/10/27 06:21:17;;;;;;;;;;;9.30;99.90;;;;;;4863079;29;20019;-88
2023/10/27 06:23:43;;;;;;;;;;;9.30;99.90;;;;;;4863210;29;19971;-85
2023/10/27 06:26:08;;;;;;;;;;;9.30;99.90;;;;;;4863464;29;19928;-84
2023/10/27 06:28:34;;;;;;;;;;;9.30;99.90;;;;;;4847855;29;20375;-84
2023/10/27 06:31:00;;;;;;;;;;;9.30;99.90;;;;;;4864135;29;19928;-83
2023/10/27 06:33:27;;;;;;;;;;;9.30;99.90;;;;;;4863173;29;20367;-84
2023/10/27 06:35:54;;;;;;;;;;;9.30;99.90;;;;;;4847962;29;19928;-85
2023/10/27 06:38:19;;;;;;;;;;;9.30;99.90;;;;;;4863846;29;20260;-84
2023/10/27 06:40:45;;;;;;;;;;;9.30;99.90;;;;;;4864149;29;19932;-83
2023/10/27 06:43:10;;;;;;;;;;;9.30;99.90;;;;;;4863042;29;19935;-84
2023/10/27 06:45:36;;;;;;;;;;;9.30;99.90;;;;;;4847811;29;19928;-84
2023/10/27 06:48:02;;;;;;;;;;;9.40;99.90;;;;;;4862833;29;19980;-84
2023/10/27 06:50:27;;;;;;;;;;;9.30;99.90;;;;;;4862650;29;19951;-84
2023/10/27 06:52:53;;;;;;;;;;;9.30;99.90;;;;;;4862534;29;20012;-83
2023/10/27 06:55:18;;;;;;;;;;;9.40;99.90;;;;;;4847338;29;19928;-83
2023/10/27 06:57:44;;;;;;;;;;;9.30;99.90;;;;;;4863880;29;20431;-83
2023/10/27 07:00:12;;;;;;;;;;;9.30;99.90;;;;;;4862525;29;19928;-86
2023/10/27 07:02:37;;;;;;;;;;;9.40;99.90;;;;;;4848934;29;19980;-85
2023/10/27 07:05:05;;;;;;;;;;;9.30;99.90;;;;;;4862665;29;19928;-84
2023/10/27 07:07:31;;;;;;;;;;;9.30;99.90;;;;;;4847059;29;19968;-85
2023/10/27 07:09:56;;;;;;;;;;;9.30;99.90;;;;;;4862606;29;20328;-84
2023/10/27 07:12:22;;;;;;;;;;;9.30;99.90;;;;;;4862325;29;19928;-84
2023/10/27 07:14:47;;;;;;;;;;;9.40;99.90;;;;;;4863171;29;19935;-85
2023/10/27 07:17:13;;;;;;;;;;;9.40;99.90;;;;;;4861622;29;19929;-86
2023/10/27 07:19:38;;;;;;;;;;;9.30;99.90;;;;;;4862067;29;19928;-85
2023/10/27 07:22:04;;;;;;;;;;;9.30;99.90;;;;;;4861284;29;20413;-85
2023/10/27 07:24:30;;;;;;;;;;;9.40;99.90;;;;;;4862828;29;19975;-85
2023/10/27 07:26:56;;;;;;;;;;;9.40;99.90;;;;;;4862987;29;19991;-84
2023/10/27 07:29:21;;;;;;;;;;;9.40;99.90;;;;;;4846457;29;20298;-84
2023/10/27 07:31:47;;;;;;;;;;;9.40;99.90;;;;;;4863023;29;19928;-84
2023/10/27 07:34:13;;;;;;;;;;;9.40;99.90;;;;;;4861746;29;20000;-86
2023/10/27 07:36:38;;;;;;;;;;;9.40;99.90;;;;;;4863146;29;19934;-85
2023/10/27 07:39:04;;;;;;;;;;;9.40;99.90;;;;;;4861836;29;19928;-86
2023/10/27 07:41:29;;;;;;;;;;;9.40;99.90;;;;;;4862609;29;19983;-84
2023/10/27 07:43:55;;;;;;;;;;;9.50;99.90;;;;;;4861667;29;19971;-86
2023/10/27 07:46:20;;;;;;;;;;;9.50;99.90;;;;;;4862487;29;19976;-89
2023/10/27 07:48:46;;;;;;;;;;;9.50;99.90;;;;;;4847629;29;20273;-86
2023/10/27 07:51:12;;;;;;;;;;;9.50;99.90;;;;;;4848003;29;20014;-85
2023/10/27 07:53:38;;;;;;;;;;;9.50;99.90;;;;;;4862238;29;19988;-85
2023/10/27 07:56:04;;;;;;;;;;;9.50;99.90;;;;;;4863542;29;19991;-84
2023/10/27 07:58:30;;;;;;;;;;;9.50;99.90;;;;;;4847273;29;19935;-85
2023/10/27 08:00:55;;;;;;;;;;;9.50;99.90;;;;;;4846872;29;19932;-84
2023/10/27 08:03:22;;;;;;;;;;;9.50;99.90;;;;;;4861305;29;20026;-83
2023/10/27 08:05:50;;;;;;;;;;;9.50;99.90;;;;;;4862434;29;20068;-84
2023/10/27 08:08:17;;;;;;;;;;;9.50;99.90;;;;;;4861267;29;19983;-89
2023/10/27 08:10:46;;;;;;;;;;;9.60;99.90;;;;;;4861305;29;19935;-87
2023/10/27 08:13:12;;;;;;;;;;;9.60;99.90;;;;;;4861905;29;20299;-88
2023/10/27 08:15:38;;;;;;;;;;;9.60;99.90;;;;;;4860962;29;19935;-88
2023/10/27 08:18:03;;;;;;;;;;;9.70;99.90;;;;;;4861913;29;19993;-85
2023/10/27 08:20:29;;;;;;;;;;;9.70;99.90;;;;;;4861109;29;20423;-85
2023/10/27 08:22:55;;;;;;;;;;;9.70;99.90;;;;;;4860418;29;19932;-84
2023/10/27 08:25:22;;;;;;;;;;;9.70;99.90;;;;;;4862876;29;19934;-87
2023/10/27 08:27:51;;;;;;;;;;;9.70;99.90;;;;;;4863156;29;19928;-84
2023/10/27 08:30:17;;;;;;;;;;;9.70;99.90;;;;;;4861535;29;19928;-87
2023/10/27 08:32:43;;;;;;;;;;;9.70;99.90;;;;;;4861654;29;20295;-86
2023/10/27 08:35:08;;;;;;;;;;;9.80;99.90;;;;;;4860912;29;19928;-84
2023/10/27 08:37:34;;;;;;;;;;;9.80;99.90;;;;;;4861105;29;19928;-84
2023/10/27 08:39:59;;;;;;;;;;;9.80;99.90;;;;;;4845349;29;19935;-87
2023/10/27 08:42:27;;;;;;;;;;;9.80;99.90;;;;;;4861235;29;20068;-83
2023/10/27 08:44:54;;;;;;;;;;;9.80;99.90;;;;;;4862180;29;20291;-83
2023/10/27 08:47:21;;;;;;;;;;;9.90;99.90;;;;;;4860843;29;19935;-84
2023/10/27 08:49:46;;;;;;;;;;;9.90;99.90;;;;;;4860493;29;20018;-84
2023/10/27 08:52:13;;;;;;;;;;;9.90;99.90;;;;;;4846014;29;20356;-90
2023/10/27 08:54:40;;;;;;;;;;;9.90;99.90;;;;;;4845724;29;19982;-86
2023/10/27 08:57:06;;;;;;;;;;;9.90;99.90;;;;;;4845088;29;20428;-84
2023/10/27 08:59:32;;;;;;;;;;;10.00;99.90;;;;;;4845350;29;20026;-89
2023/10/27 09:01:57;;;;;;;;;;;10.00;99.90;;;;;;4830287;29;19978;-84
2023/10/27 09:04:23;;;;;;;;;;;10.00;99.90;;;;;;4860567;29;20313;-86
2023/10/27 09:06:49;;;;;;;;;;;10.00;99.90;;;;;;4845422;29;19939;-84
2023/10/27 09:09:15;;;;;;;;;;;10.00;99.90;;;;;;4861318;29;19936;-84
2023/10/27 09:11:45;;;;;;;;;;;10.00;99.90;;;;;;4860498;29;19936;-89
2023/10/27 09:14:18;;;;;;;;;;;10.00;99.90;;;;;;4860569;29;20387;-85
2023/10/27 09:16:44;;;;;;;;;;;10.10;99.90;;;;;;4844924;29;20023;-84
2023/10/27 09:19:20;;;;;;;;;;;10.00;99.90;;;;;;4861372;29;20317;-84
2023/10/27 09:21:46;;;;;;;;;;;10.10;99.90;;;;;;4860433;29;19943;-84
2023/10/27 09:24:20;;;;;;;;;;;10.10;99.90;;;;;;4845328;29;19928;-84
2023/10/27 09:26:46;;;;;;;;;;;10.00;99.90;;;;;;4861493;29;19939;-85
2023/10/27 09:29:12;;;;;;;;;;;10.10;99.90;;;;;;4845528;29;20042;-85
2023/10/27 09:31:38;;;;;;;;;;;10.10;99.90;;;;;;4860564;29;19935;-84
2023/10/27 09:34:24;;;;;;;;;;;10.00;99.90;;;;;;4845307;29;19967;-83
2023/10/27 09:36:53;;;;;;;;;;;10.00;99.90;;;;;;4843864;29;19928;-85
2023/10/27 09:39:20;;;;;;;;;;;10.00;99.90;;;;;;4844884;29;19928;-85
2023/10/27 09:41:49;;;;;;;;;;;10.10;99.90;;;;;;4862717;29;19932;-85
2023/10/27 09:44:18;;;;;;;;;;;10.10;99.90;;;;;;4848956;29;19939;-88
2023/10/27 09:46:48;;;;;;;;;;;10.10;99.90;;;;;;4848522;29;20275;-86
2023/10/27 09:49:14;;;;;;;;;;;10.10;99.90;;;;;;4864001;29;19928;-86
2023/10/27 09:51:40;;;;;;;;;;;10.10;99.90;;;;;;4863917;29;19984;-89
2023/10/27 09:54:07;;;;;;;;;;;10.10;99.90;;;;;;4833452;29;19961;-85
2023/10/27 09:56:33;;;;;;;;;;;10.10;99.90;;;;;;4863572;29;19928;-85
2023/10/27 09:59:00;;;;;;;;;;;10.10;99.90;;;;;;4863867;29;19928;-85
2023/10/27 10:01:26;;;;;;;;;;;10.10;99.90;;;;;;4864674;29;19980;-87
2023/10/27 10:03:52;;;;;;;;;;;10.10;99.90;;;;;;4863624;29;20037;-86
2023/10/27 10:06:23;;;;;;;;;;;10.10;99.90;;;;;;4863909;29;19979;-91
2023/10/27 10:09:09;;;;;;;;;;;10.00;99.90;;;;;;4864490;29;19935;-87
2023/10/27 10:11:36;;;;;;;;;;;10.10;99.90;;;;;;4863705;29;20003;-85
2023/10/27 10:14:01;;;;;;;;;;;10.10;99.90;;;;;;4864426;29;19936;-86
2023/10/27 10:16:27;;;;;;;;;;;10.10;99.90;;;;;;4848130;29;19928;-85
2023/10/27 10:18:55;;;;;;;;;;;10.10;99.90;;;;;;4848175;29;20428;-85
2023/10/27 10:21:31;;;;;;;;;;;10.10;99.90;;;;;;4863664;29;19928;-87
2023/10/27 10:24:08;;;;;;;;;;;10.10;99.90;;;;;;4848729;29;19979;-87
2023/10/27 10:26:52;;;;;;;;;;;10.10;99.90;;;;;;4863393;29;19928;-88
2023/10/27 10:29:27;;;;;;;;;;;10.10;99.90;;;;;;4863297;29;20032;-89
2023/10/27 10:31:55;;;;;;;;;;;10.10;99.90;;;;;;4862992;29;20391;-86
2023/10/27 10:34:21;;;;;;;;;;;10.10;99.90;;;;;;4847921;29;19985;-87
2023/10/27 10:36:46;;;;;;;;;;;10.20;99.90;;;;;;4847596;29;19932;-88
2023/10/27 10:39:13;;;;;;;;;;;10.20;99.90;;;;;;4847785;29;20022;-87
2023/10/27 10:41:42;;;;;;;;;;;10.20;99.90;;;;;;4847922;29;19968;-85
2023/10/27 10:44:11;;;;;;;;;;;10.20;99.90;;;;;;4863781;29;19928;-85
2023/10/27 10:46:37;;;;;;;;;;;10.20;99.90;;;;;;4862588;29;20428;-85
2023/10/27 10:49:02;;;;;;;;;;;10.20;99.90;;;;;;4863597;29;19928;-83
2023/10/27 10:51:36;;;;;;;;;;;10.30;99.90;;;;;;4863475;29;19928;-83
2023/10/27 10:54:02;;;;;;;;;;;10.20;99.90;;;;;;4862883;29;20443;-83
2023/10/27 10:56:27;;;;;;;;;;;10.30;99.90;;;;;;4862850;29;20023;-85
2023/10/27 10:58:53;;;;;;;;;;;10.30;99.90;;;;;;4863553;29;20023;-83
2023/10/27 11:01:20;;;;;;;;;;;10.30;99.90;;;;;;4863675;29;19928;-84
2023/10/27 11:03:49;;;;;;;;;;;10.30;99.90;;;;;;4864258;29;19932;-84
2023/10/27 11:06:17;;;;;;;;;;;10.30;99.90;;;;;;4862748;29;19939;-83
2023/10/27 11:08:45;;;;;;;;;;;10.30;99.90;;;;;;4863509;29;20420;-83
2023/10/27 11:11:13;;;;;;;;;;;10.30;99.90;;;;;;4863598;29;19950;-83
2023/10/27 11:13:41;;;;;;;;;;;10.30;99.90;;;;;;4862393;29;20372;-89
2023/10/27 11:16:21;;;;;;;;;;;10.30;99.90;;;;;;4862695;29;20305;-84
2023/10/27 11:18:47;;;;;;;;;;;10.30;99.90;;;;;;4863975;29;19943;-84
2023/10/27 11:21:14;;;;;;;;;;;10.30;99.90;;;;;;4863961;29;20342;-84
2023/10/27 11:23:40;;;;;;;;;;;10.40;99.90;;;;;;4863844;29;19934;-84
2023/10/27 11:26:05;;;;;;;;;;;10.30;99.90;;;;;;4863656;29;20018;-87
2023/10/27 11:28:35;;;;;;;;;;;10.30;99.90;;;;;;4862742;29;19971;-88
2023/10/27 11:31:08;;;;;;;;;;;10.40;99.90;;;;;;4863110;29;19928;-87
2023/10/27 11:33:54;;;;;;;;;;;10.40;99.90;;;;;;4862025;29;19928;-87
2023/10/27 11:36:19;;;;;;;;;;;10.30;99.90;;;;;;4863182;29;19976;-87
2023/10/27 11:38:45;;;;;;;;;;;10.40;99.90;;;;;;4862171;29;19932;-88
2023/10/27 11:41:11;;;;;;;;;;;10.40;99.90;;;;;;4862319;29;20397;-87
2023/10/27 11:43:37;;;;;;;;;;;10.40;99.90;;;;;;4861809;29;19967;-87
2023/10/27 11:46:13;;;;;;;;;;;10.40;99.90;;;;;;4862021;29;20009;-88
2023/10/27 11:48:39;;;;;;;;;;;10.40;99.90;;;;;;4862230;29;20451;-87
2023/10/27 11:51:05;;;;;;;;;;;10.40;99.90;;;;;;4861626;29;19979;-87
2023/10/27 11:53:30;;;;;;;;;;;10.40;99.90;;;;;;4847357;29;19934;-88
2023/10/27 11:55:57;;;;;;;;;;;10.40;99.90;;;;;;4863189;29;20035;-87
2023/10/27 11:58:22;;;;;;;;;;;10.40;99.90;;;;;;4861930;29;19928;-87
2023/10/27 12:00:48;;;;;;;;;;;10.50;99.90;;;;;;4861729;29;19996;-88
2023/10/27 12:03:14;;;;;;;;;;;10.40;99.90;;;;;;4861069;29;19936;-88
2023/10/27 12:05:39;;;;;;;;;;;10.50;99.90;;;;;;4863625;29;19953;-87
2023/10/27 12:08:05;;;;;;;;;;;10.50;99.90;;;;;;4864084;29;20417;-87
2023/10/27 12:10:34;;;;;;;;;;;10.50;99.90;;;;;;4861776;29;19928;-87
2023/10/27 12:13:03;;;;;;;;;;;10.50;99.90;;;;;;4862528;29;19928;-87
2023/10/27 12:15:29;;;;;;;;;;;10.50;99.90;;;;;;4845973;29;19934;-87
2023/10/27 12:17:54;;;;;;;;;;;10.50;99.90;;;;;;4846904;29;19977;-87
2023/10/27 12:20:20;;;;;;;;;;;10.60;99.90;;;;;;4862975;29;19971;-88
2023/10/27 12:22:46;;;;;;;;;;;10.60;99.90;;;;;;4861006;29;19939;-88
2023/10/27 12:25:12;;;;;;;;;;;10.50;99.90;;;;;;4846235;29;19928;-88
2023/10/27 12:27:38;;;;;;;;;;;10.60;99.90;;;;;;4861441;29;20035;-88
2023/10/27 12:30:03;;;;;;;;;;;10.50;99.90;;;;;;4861973;29;19971;-88
2023/10/27 12:32:32;;;;;;;;;;;10.60;99.90;;;;;;4861023;29;19977;-87
2023/10/27 12:34:58;;;;;;;;;;;10.60;99.90;;;;;;4861372;29;19932;-87
2023/10/27 12:37:24;;;;;;;;;;;10.60;99.90;;;;;;4862212;29;19928;-87
2023/10/27 12:39:50;;;;;;;;;;;10.60;99.90;;;;;;4861423;29;19928;-87
2023/10/27 12:42:16;;;;;;;;;;;10.60;99.90;;;;;;4862550;29;19992;-87
2023/10/27 12:44:42;;;;;;;;;;;10.60;99.90;;;;;;4846192;29;19928;-87
2023/10/27 12:47:07;;;;;;;;;;;10.60;99.90;;;;;;4861250;29;20052;-87
2023/10/27 12:49:33;;;;;;;;;;;10.70;99.90;;;;;;4861311;29;19935;-88
2023/10/27 12:51:58;;;;;;;;;;;10.70;99.90;;;;;;4861774;29;19975;-87
2023/10/27 12:54:24;;;;;;;;;;;10.70;99.90;;;;;;4860897;29;19928;-87
2023/10/27 12:56:50;;;;;;;;;;;10.70;99.90;;;;;;4860464;29;19928;-87
2023/10/27 12:59:15;;;;;;;;;;;10.70;99.90;;;;;;4860840;29;19932;-87
2023/10/27 13:01:41;;;;;;;;;;;10.60;99.90;;;;;;4861724;29;19935;-88
2023/10/27 13:04:06;;;;;;;;;;;10.70;99.90;;;;;;4861741;29;20444;-87
2023/10/27 13:06:33;;;;;;;;;;;10.60;99.90;;;;;;4862433;29;19934;-87
2023/10/27 13:08:59;;;;;;;;;;;10.60;99.90;;;;;;4845397;29;20376;-88
2023/10/27 13:11:25;;;;;;;;;;;10.70;99.90;;;;;;4861438;29;19928;-87
2023/10/27 13:13:51;;;;;;;;;;;10.70;99.90;;;;;;4860598;29;20392;-87
2023/10/27 13:16:17;;;;;;;;;;;10.70;99.90;;;;;;4860632;29;19936;-87
2023/10/27 13:18:42;;;;;;;;;;;10.70;99.90;;;;;;4860339;29;20381;-88
2023/10/27 13:21:14;;;;;;;;;;;10.70;99.90;;;;;;4862707;29;19928;-88
2023/10/27 13:23:40;;;;;;;;;;;10.70;99.90;;;;;;4862863;29;19928;-88
2023/10/27 13:26:05;;;;;;;;;;;10.80;99.90;;;;;;4860662;29;20382;-87
2023/10/27 13:28:31;;;;;;;;;;;10.70;99.90;;;;;;4875718;29;20079;-87
2023/10/27 13:30:59;;;;;;;;;;;10.70;99.90;;;;;;4861907;29;19935;-88
2023/10/27 13:33:25;;;;;;;;;;;10.70;99.90;;;;;;4861454;29;20094;-88
2023/10/27 13:35:58;;;;;;;;;;;10.70;99.90;;;;;;4861558;29;19929;-88
2023/10/27 13:38:24;;;;;;;;;;;10.70;99.90;;;;;;4861650;29;19984;-88
2023/10/27 13:40:51;;;;;;;;;;;10.70;99.90;;;;;;4860336;29;20015;-87
2023/10/27 13:43:19;;;;;;;;;;;10.70;99.90;;;;;;4861563;29;19935;-87
2023/10/27 13:45:44;;;;;;;;;;;10.80;99.90;;;;;;4861264;29;19927;-87
2023/10/27 13:48:11;;;;;;;;;;;10.70;99.90;;;;;;4860642;29;20441;-87
2023/10/27 13:50:36;;;;;;;;;;;10.70;99.90;;;;;;4844991;29;19935;-89
2023/10/27 13:53:02;;;;;;;;;;;10.70;99.90;;;;;;4861223;29;19928;-87
2023/10/27 13:55:27;;;;;;;;;;;10.70;99.90;;;;;;4844798;29;19975;-87
2023/10/27 13:57:53;;;;;;;;;;;10.70;99.90;;;;;;4861128;29;20358;-87
2023/10/27 14:00:18;;;;;;;;;;;10.80;99.90;;;;;;4860886;29;19928;-87
2023/10/27 14:02:44;;;;;;;;;;;10.80;99.90;;;;;;4860953;29;20348;-87
2023/10/27 14:05:13;;;;;;;;;;;10.80;99.90;;;;;;4860480;29;19928;-88
2023/10/27 14:07:38;;;;;;;;;;;10.80;99.90;;;;;;4861086;29;19979;-87
2023/10/27 14:10:04;;;;;;;;;;;10.80;99.90;;;;;;4860193;29;19928;-87
2023/10/27 14:12:30;;;;;;;;;;;10.80;99.90;;;;;;4860384;29;19935;-87
2023/10/27 14:14:55;;;;;;;;;;;10.80;99.90;;;;;;4860017;29;19939;-88
2023/10/27 14:17:21;;;;;;;;;;;10.80;99.90;;;;;;4859969;29;20055;-87
2023/10/27 14:19:49;;;;;;;;;;;10.80;99.90;;;;;;4860964;29;19928;-88
2023/10/27 14:22:14;;;;;;;;;;;10.90;99.90;;;;;;4860844;29;19928;-88